createdAt,value
2022-10-15T00:01:42.271Z,26.80
2022-10-15T00:04:10.373Z,28.35
2022-10-15T00:06:37.720Z,27.83
2022-10-15T00:09:04.680Z,26.35
2022-10-15T00:11:31.395Z,26.77
2022-10-15T00:14:00.342Z,26.63
2022-10-15T00:16:28.973Z,25.27
2022-10-15T00:18:56.997Z,25.92
2022-10-15T00:21:25.742Z,25.52
2022-10-15T00:23:52.486Z,27.77
2022-10-15T00:26:21.712Z,29.13
2022-10-15T00:28:50.588Z,28.63
2022-10-15T00:31:19.552Z,29.00
2022-10-15T00:33:46.655Z,26.98
2022-10-15T00:36:15.919Z,26.90
2022-10-15T00:38:44.254Z,27.83
2022-10-15T00:41:15.148Z,29.08
2022-10-15T00:43:45.153Z,28.58
2022-10-15T00:46:24.923Z,28.80
2022-10-15T00:48:55.634Z,29.73
2022-10-15T00:51:24.890Z,32.28
2022-10-15T00:53:53.705Z,31.20
2022-10-15T00:56:22.130Z,32.58
2022-10-15T00:58:50.294Z,31.90
2022-10-15T01:01:17.673Z,33.67
2022-10-15T01:03:44.603Z,32.65
2022-10-15T01:06:11.549Z,31.15
2022-10-15T01:08:39.074Z,34.28
2022-10-15T01:11:21.933Z,33.63
2022-10-15T01:13:59.646Z,29.00
2022-10-15T01:16:34.291Z,31.42
2022-10-15T01:19:06.072Z,36.33
2022-10-15T01:21:38.239Z,31.90
2022-10-15T01:24:44.481Z,32.85
2022-10-15T01:27:43.922Z,33.92
2022-10-15T01:30:38.230Z,31.55
2022-10-15T01:33:15.955Z,34.97
2022-10-15T01:35:48.458Z,32.83
2022-10-15T01:38:26.205Z,30.65
2022-10-15T01:40:57.348Z,29.17
2022-10-15T01:43:29.317Z,30.13
2022-10-15T01:46:01.714Z,31.02
2022-10-15T01:48:31.455Z,32.22
2022-10-15T01:51:02.462Z,31.15
2022-10-15T01:53:29.673Z,32.08
2022-10-15T01:56:00.080Z,31.80
2022-10-15T01:58:29.821Z,32.15
2022-10-15T02:00:58.783Z,30.25
2022-10-15T02:05:56.824Z,30.17
2022-10-15T02:08:30.893Z,30.75
2022-10-15T02:11:04.308Z,31.33
2022-10-15T02:13:39.068Z,31.83
2022-10-15T02:16:13.902Z,31.27
2022-10-15T02:18:47.134Z,30.65
2022-10-15T02:21:19.826Z,31.77
2022-10-15T02:23:52.483Z,34.00
2022-10-15T02:26:21.198Z,32.88
2022-10-15T02:28:52.578Z,32.37
2022-10-15T02:31:23.627Z,33.20
2022-10-15T02:33:52.944Z,31.75
2022-10-15T02:36:20.462Z,31.15
2022-10-15T02:38:48.843Z,30.08
2022-10-15T02:41:16.122Z,34.30
2022-10-15T02:43:43.463Z,33.13
2022-10-15T02:46:12.171Z,32.55
2022-10-15T02:48:40.265Z,31.80
2022-10-15T02:51:07.693Z,31.33
2022-10-15T02:53:34.602Z,33.85
2022-10-15T02:56:01.319Z,33.35
2022-10-15T02:58:28.698Z,32.78
2022-10-15T03:00:55.532Z,31.75
2022-10-15T03:03:22.421Z,29.40
2022-10-15T03:05:51.213Z,34.35
2022-10-15T03:08:17.916Z,32.20
2022-10-15T03:10:44.659Z,33.85
2022-10-15T03:13:12.317Z,31.83
2022-10-15T03:15:39.244Z,30.10
2022-10-15T03:18:07.006Z,31.42
2022-10-15T03:20:34.329Z,34.00
2022-10-15T03:23:02.538Z,31.88
2022-10-15T03:25:29.274Z,29.75
2022-10-15T03:27:56.757Z,29.13
2022-10-15T03:30:23.538Z,30.30
2022-10-15T03:32:50.297Z,32.42
2022-10-15T03:35:17.702Z,31.98
2022-10-15T03:37:44.438Z,30.98
2022-10-15T03:40:14.533Z,31.95
2022-10-15T03:42:42.100Z,27.90
2022-10-15T03:45:09.623Z,28.40
2022-10-15T03:47:36.438Z,26.08
2022-10-15T03:50:04.461Z,28.33
2022-10-15T03:52:31.170Z,27.80
2022-10-15T03:54:57.916Z,29.85
2022-10-15T03:57:26.568Z,25.95
2022-10-15T03:59:53.377Z,27.83
2022-10-15T04:02:20.430Z,27.50
2022-10-15T04:04:47.877Z,26.13
2022-10-15T04:07:14.596Z,25.70
2022-10-15T04:09:41.311Z,28.80
2022-10-15T04:12:08.659Z,29.13
2022-10-15T04:14:36.755Z,27.65
2022-10-15T04:17:03.535Z,24.10
2022-10-15T04:19:30.895Z,26.33
2022-10-15T04:21:57.681Z,23.42
2022-10-15T04:24:24.819Z,28.17
2022-10-15T04:26:52.174Z,26.85
2022-10-15T04:29:19.565Z,26.52
2022-10-15T04:31:47.644Z,24.92
2022-10-15T04:34:14.410Z,29.67
2022-10-15T04:36:41.764Z,27.65
2022-10-15T04:39:10.886Z,30.17
2022-10-15T04:41:40.535Z,30.02
2022-10-15T04:44:07.914Z,31.08
2022-10-15T04:46:34.614Z,28.73
2022-10-15T04:49:02.687Z,25.20
2022-10-15T04:51:30.123Z,26.45
2022-10-15T04:53:56.826Z,31.88
2022-10-15T04:56:23.634Z,30.77
2022-10-15T04:58:51.090Z,31.25
2022-10-15T05:01:20.001Z,33.63
2022-10-15T05:03:48.534Z,37.25
2022-10-15T05:06:19.159Z,34.60
2022-10-15T05:08:46.793Z,33.67
2022-10-15T05:11:15.130Z,36.47
2022-10-15T05:16:11.307Z,29.67
2022-10-15T05:21:06.318Z,29.67
2022-10-15T05:23:34.835Z,31.52
2022-10-15T05:26:01.644Z,27.20
2022-10-15T05:28:29.850Z,28.30
2022-10-15T05:30:56.765Z,30.20
2022-10-15T05:33:23.506Z,27.95
2022-10-15T05:35:50.839Z,24.58
2022-10-15T05:38:17.553Z,26.13
2022-10-15T05:40:49.557Z,30.25
2022-10-15T05:43:16.903Z,26.38
2022-10-15T05:45:43.629Z,21.20
2022-10-15T05:48:10.329Z,27.40
2022-10-15T05:50:37.662Z,27.55
2022-10-15T05:53:04.416Z,21.60
2022-10-15T05:55:31.135Z,21.42
2022-10-15T05:58:02.881Z,22.67
2022-10-15T06:00:29.923Z,24.70
2022-10-15T06:02:56.704Z,25.40
2022-10-15T06:05:24.341Z,25.35
2022-10-15T06:07:51.118Z,23.40
2022-10-15T06:10:18.253Z,25.75
2022-10-15T06:12:49.706Z,24.40
2022-10-15T06:15:18.736Z,20.55
2022-10-15T06:17:46.057Z,22.73
2022-10-15T06:20:13.340Z,24.88
2022-10-15T06:22:40.156Z,23.55
2022-10-15T06:25:08.747Z,22.90
2022-10-15T06:27:35.845Z,25.98
2022-10-15T06:30:03.619Z,20.45
2022-10-15T06:32:32.310Z,22.58
2022-10-15T06:34:59.051Z,21.10
2022-10-15T06:37:26.212Z,23.98
2022-10-15T06:39:53.726Z,21.98
2022-10-15T06:42:20.447Z,21.67
2022-10-15T06:44:47.225Z,20.88
2022-10-15T06:47:14.552Z,18.13
2022-10-15T06:49:42.632Z,21.98
2022-10-15T06:52:09.364Z,17.97
2022-10-15T06:54:36.813Z,21.58
2022-10-15T06:57:03.722Z,19.35
2022-10-15T06:59:30.465Z,17.70
2022-10-15T07:01:57.797Z,17.00
2022-10-15T07:04:24.610Z,17.45
2022-10-15T07:06:52.671Z,20.85
2022-10-15T07:09:20.075Z,16.75
2022-10-15T07:11:46.834Z,18.85
2022-10-15T07:14:13.547Z,16.38
2022-10-15T07:16:40.876Z,17.98
2022-10-15T07:19:07.577Z,19.73
2022-10-15T07:21:34.356Z,18.45
2022-10-15T07:24:03.181Z,17.23
2022-10-15T07:26:29.914Z,18.45
2022-10-15T07:28:56.758Z,18.27
2022-10-15T07:31:24.322Z,17.27
2022-10-15T07:33:51.057Z,16.05
2022-10-15T07:36:17.762Z,17.30
2022-10-15T07:38:45.100Z,18.98
2022-10-15T07:41:13.621Z,16.02
2022-10-15T07:43:40.399Z,17.65
2022-10-15T07:46:07.746Z,18.08
2022-10-15T07:48:34.499Z,19.30
2022-10-15T07:51:02.859Z,15.35
2022-10-15T07:53:30.796Z,19.90
2022-10-15T07:55:59.126Z,22.30
2022-10-15T07:58:27.295Z,21.63
2022-10-15T08:00:54.621Z,21.17
2022-10-15T08:03:21.337Z,19.48
2022-10-15T08:05:48.072Z,18.67
2022-10-15T08:08:15.423Z,17.40
2022-10-15T08:10:42.128Z,21.77
2022-10-15T08:13:08.855Z,19.67
2022-10-15T08:15:40.444Z,19.35
2022-10-15T08:18:07.515Z,18.33
2022-10-15T08:20:34.265Z,18.15
2022-10-15T08:23:01.582Z,16.75
2022-10-15T08:25:28.770Z,17.67
2022-10-15T08:27:55.821Z,17.17
2022-10-15T08:30:23.236Z,14.77
2022-10-15T08:32:51.329Z,13.30
2022-10-15T08:35:18.034Z,15.68
2022-10-15T08:37:45.360Z,15.23
2022-10-15T08:40:13.201Z,14.40
2022-10-15T08:42:41.968Z,14.68
2022-10-15T08:45:13.594Z,12.68
2022-10-15T08:47:43.279Z,12.57
2022-10-15T08:50:23.210Z,14.27
2022-10-15T08:52:51.050Z,13.38
2022-10-15T08:55:20.793Z,13.93
2022-10-15T08:57:52.997Z,12.07
2022-10-15T09:00:22.492Z,12.65
2022-10-15T09:05:32.559Z,12.75
2022-10-15T09:08:07.404Z,10.60
2022-10-15T09:10:43.153Z,12.70
2022-10-15T09:13:16.330Z,10.52
2022-10-15T09:15:50.285Z,9.57
2022-10-15T09:18:22.026Z,10.02
2022-10-15T09:20:50.885Z,10.13
2022-10-15T09:23:19.666Z,10.48
2022-10-15T09:25:51.991Z,8.68
2022-10-15T09:28:25.775Z,10.38
2022-10-15T09:30:56.509Z,9.52
2022-10-15T09:33:35.341Z,9.20
2022-10-15T09:36:16.781Z,7.93
2022-10-15T09:38:54.008Z,9.13
2022-10-15T09:41:30.242Z,7.95
2022-10-15T09:44:00.452Z,7.78
2022-10-15T09:46:27.233Z,8.52
2022-10-15T09:49:08.361Z,7.28
2022-10-15T09:51:41.590Z,8.60
2022-10-15T09:54:18.944Z,9.00
2022-10-15T09:56:50.469Z,9.70
2022-10-15T09:59:18.585Z,10.30
2022-10-15T10:01:59.510Z,8.52
2022-10-15T10:04:28.663Z,9.13
2022-10-15T10:07:00.081Z,10.05
2022-10-15T10:09:31.645Z,8.45
2022-10-15T10:12:01.636Z,9.13
2022-10-15T10:14:31.810Z,9.30
2022-10-15T10:17:16.663Z,9.48
2022-10-15T10:19:44.531Z,8.48
2022-10-15T10:22:16.829Z,9.55
2022-10-15T10:24:44.114Z,9.55
2022-10-15T10:27:23.111Z,9.93
2022-10-15T10:29:57.848Z,9.60
2022-10-15T10:32:30.299Z,8.90
2022-10-15T10:34:59.025Z,9.30
2022-10-15T10:37:27.722Z,10.32
2022-10-15T10:42:31.545Z,8.73
2022-10-15T10:45:18.567Z,9.70
2022-10-15T10:47:46.499Z,9.25
2022-10-15T10:50:32.755Z,9.45
2022-10-15T10:53:20.135Z,9.18
2022-10-15T10:55:47.286Z,9.27
2022-10-15T10:58:22.090Z,8.43
2022-10-15T11:00:52.879Z,9.07
2022-10-15T11:03:28.357Z,10.55
2022-10-15T11:06:01.555Z,8.07
2022-10-15T11:08:41.954Z,9.10
2022-10-15T11:11:17.231Z,8.68
2022-10-15T11:13:52.675Z,7.82
2022-10-15T11:16:30.373Z,8.45
2022-10-15T11:19:19.770Z,7.85
2022-10-15T11:22:09.050Z,8.50
2022-10-15T11:24:48.883Z,8.75
2022-10-15T11:27:35.561Z,7.18
2022-10-15T11:30:08.583Z,6.85
2022-10-15T11:33:06.254Z,7.05
2022-10-15T11:35:58.252Z,6.85
2022-10-15T11:38:33.741Z,6.47
2022-10-15T11:41:19.479Z,8.40
2022-10-15T11:44:06.258Z,7.57
2022-10-15T11:46:39.338Z,7.50
2022-10-15T11:49:24.316Z,8.57
2022-10-15T11:52:22.664Z,8.00
2022-10-15T11:54:59.655Z,5.82
2022-10-15T11:57:31.084Z,6.05
2022-10-15T12:00:02.554Z,8.68
2022-10-15T12:02:34.370Z,6.80
2022-10-15T12:05:06.166Z,7.22
2022-10-15T12:07:37.702Z,7.90
2022-10-15T12:10:17.333Z,8.80
2022-10-15T12:12:52.775Z,7.85
2022-10-15T12:15:27.597Z,8.77
2022-10-15T12:18:01.685Z,5.68
2022-10-15T12:20:28.761Z,6.63
2022-10-15T12:22:58.304Z,4.35
2022-10-15T12:28:17.013Z,5.93
2022-10-15T12:30:54.757Z,5.55
2022-10-15T12:33:26.134Z,6.80
2022-10-15T12:35:55.367Z,5.78
2022-10-15T12:38:28.726Z,5.32
2022-10-15T12:40:58.732Z,5.55
2022-10-15T12:43:29.222Z,6.20
2022-10-15T12:45:59.192Z,8.48
2022-10-15T12:48:32.753Z,6.00
2022-10-15T12:51:39.026Z,4.22
2022-10-15T12:54:37.799Z,4.72
2022-10-15T12:57:43.731Z,3.83
2022-10-15T13:00:37.465Z,3.53
2022-10-15T13:03:24.179Z,3.50
2022-10-15T13:05:54.152Z,3.20
2022-10-15T13:08:23.674Z,3.88
2022-10-15T13:10:53.216Z,4.68
2022-10-15T13:13:24.047Z,4.20
2022-10-15T13:15:57.085Z,4.22
2022-10-15T13:18:25.333Z,4.22
2022-10-15T13:20:53.050Z,4.60
2022-10-15T13:23:30.422Z,4.47
2022-10-15T13:26:18.608Z,4.88
2022-10-15T13:28:46.362Z,5.13
2022-10-15T13:31:19.391Z,4.28
2022-10-15T13:33:49.983Z,4.82
2022-10-15T13:36:22.539Z,4.30
2022-10-15T13:38:54.876Z,5.30
2022-10-15T13:41:27.637Z,5.43
2022-10-15T13:43:55.153Z,4.30
2022-10-15T13:46:25.264Z,4.78
2022-10-15T13:48:58.068Z,4.50
2022-10-15T13:51:34.213Z,5.20
2022-10-15T13:54:02.617Z,5.18
2022-10-15T13:56:32.682Z,4.60
2022-10-15T13:59:01.576Z,5.50
2022-10-15T14:03:59.400Z,4.47
2022-10-15T14:06:27.675Z,3.33
2022-10-15T14:08:56.314Z,2.50
2022-10-15T14:11:24.576Z,2.20
2022-10-15T14:13:52.912Z,2.70
2022-10-15T14:16:23.935Z,2.65
2022-10-15T14:18:56.695Z,2.88
2022-10-15T14:21:26.132Z,2.60
2022-10-15T14:24:03.053Z,2.58
2022-10-15T14:26:29.815Z,2.60
2022-10-15T14:28:57.289Z,3.00
2022-10-15T14:31:32.055Z,2.63
2022-10-15T14:34:01.011Z,2.90
2022-10-15T14:36:29.926Z,2.83
2022-10-15T14:41:55.835Z,1.80
2022-10-15T14:44:22.614Z,1.83
2022-10-15T14:46:52.853Z,1.20
2022-10-15T14:49:25.058Z,2.03
2022-10-15T14:51:54.864Z,1.30
2022-10-15T14:54:25.495Z,1.95
2022-10-15T14:56:53.022Z,1.60
2022-10-15T14:59:22.183Z,1.40
2022-10-15T15:01:56.079Z,1.17
2022-10-15T15:04:38.776Z,1.90
2022-10-15T15:07:17.207Z,1.45
2022-10-15T15:09:48.201Z,1.42
2022-10-15T15:12:24.225Z,1.60
2022-10-15T15:14:54.674Z,2.03
2022-10-15T15:17:23.407Z,2.10
2022-10-15T15:19:53.434Z,1.50
2022-10-15T15:22:26.607Z,1.20
2022-10-15T15:24:53.825Z,1.73
2022-10-15T15:27:24.428Z,1.88
2022-10-15T15:29:51.919Z,0.93
2022-10-15T15:32:20.082Z,1.02
2022-10-15T15:34:48.859Z,1.27
2022-10-15T15:37:18.473Z,1.42
2022-10-15T15:39:45.426Z,1.30
2022-10-15T15:42:13.681Z,1.70
2022-10-15T15:44:40.710Z,1.92
2022-10-15T15:47:07.501Z,1.17
2022-10-15T15:49:35.149Z,1.30
2022-10-15T15:52:02.155Z,1.20
2022-10-15T15:54:30.611Z,1.23
2022-10-15T15:56:57.942Z,1.40
2022-10-15T15:59:24.678Z,2.00
2022-10-15T16:01:51.403Z,1.65
2022-10-15T16:04:19.546Z,1.20
2022-10-15T16:06:46.255Z,1.40
2022-10-15T16:09:12.977Z,1.25
2022-10-15T16:11:41.655Z,1.02
2022-10-15T16:14:09.421Z,1.20
2022-10-15T16:16:36.275Z,1.00
2022-10-15T16:19:03.794Z,1.40
2022-10-15T16:21:30.970Z,0.80
2022-10-15T16:23:57.994Z,1.52
2022-10-15T16:26:25.597Z,0.70
2022-10-15T16:28:53.731Z,1.20
2022-10-15T16:31:24.227Z,1.15
2022-10-15T16:33:55.450Z,1.38
2022-10-15T16:36:22.230Z,1.50
2022-10-15T16:38:49.042Z,1.30
2022-10-15T16:41:17.224Z,1.30
2022-10-15T16:43:44.240Z,1.60
2022-10-15T16:46:12.426Z,1.20
2022-10-15T16:48:39.783Z,1.42
2022-10-15T16:51:08.771Z,1.83
2022-10-15T16:56:05.356Z,1.60
2022-10-15T17:00:59.235Z,2.67
2022-10-15T17:03:28.483Z,2.38
2022-10-15T17:05:59.076Z,3.20
2022-10-15T17:08:33.302Z,3.55
2022-10-15T17:11:03.068Z,3.90
2022-10-15T17:13:29.817Z,3.67
2022-10-15T17:15:59.198Z,4.85
2022-10-15T17:18:29.959Z,6.82
2022-10-15T17:20:56.689Z,10.32
2022-10-15T17:23:23.424Z,7.50
2022-10-15T17:25:50.767Z,5.07
2022-10-15T17:28:17.551Z,5.25
2022-10-15T17:30:44.317Z,4.72
2022-10-15T17:33:11.699Z,5.63
2022-10-15T17:35:40.383Z,5.55
2022-10-15T17:38:07.135Z,5.10
2022-10-15T17:40:34.527Z,3.97
2022-10-15T17:43:01.329Z,4.57
2022-10-15T17:45:28.056Z,4.65
2022-10-15T17:47:55.427Z,5.13
2022-10-15T17:50:22.146Z,4.07
2022-10-15T17:52:50.236Z,3.78
2022-10-15T17:55:17.785Z,4.30
2022-10-15T17:57:44.492Z,4.10
2022-10-15T18:00:12.450Z,5.20
2022-10-15T18:02:39.904Z,5.10
2022-10-15T18:05:07.071Z,4.00
2022-10-15T18:07:33.906Z,3.33
2022-10-15T18:10:02.623Z,3.08
2022-10-15T18:12:29.367Z,2.63
2022-10-15T18:14:56.105Z,3.45
2022-10-15T18:17:23.851Z,3.55
2022-10-15T18:19:50.890Z,3.47
2022-10-15T18:22:17.695Z,4.18
2022-10-15T18:24:45.032Z,3.30
2022-10-15T18:27:13.092Z,3.20
2022-10-15T18:29:40.143Z,3.47
2022-10-15T18:32:07.488Z,2.97
2022-10-15T18:34:34.211Z,3.50
2022-10-15T18:37:00.987Z,2.95
2022-10-15T18:39:28.353Z,3.47
2022-10-15T18:41:55.308Z,2.72
2022-10-15T18:44:26.779Z,2.80
2022-10-15T18:46:54.112Z,2.67
2022-10-15T18:49:21.511Z,3.15
2022-10-15T18:51:48.455Z,6.50
2022-10-15T18:54:15.862Z,9.88
2022-10-15T18:56:42.602Z,9.65
2022-10-15T18:59:09.530Z,8.32
2022-10-15T19:01:39.330Z,7.30
2022-10-15T19:04:07.642Z,3.92
2022-10-15T19:06:36.949Z,4.40
2022-10-15T19:09:06.638Z,3.67
2022-10-15T19:11:34.149Z,3.20
2022-10-15T19:14:01.299Z,3.40
2022-10-15T19:16:28.942Z,3.20
2022-10-15T19:18:57.131Z,3.10
2022-10-15T19:21:24.301Z,3.78
2022-10-15T19:23:51.719Z,4.00
2022-10-15T19:26:18.514Z,3.70
2022-10-15T19:28:50.513Z,3.53
2022-10-15T19:31:22.737Z,3.90
2022-10-15T19:33:49.537Z,3.72
2022-10-15T19:36:22.557Z,3.38
2022-10-15T19:38:50.367Z,3.03
2022-10-15T19:41:17.488Z,3.33
2022-10-15T19:43:44.467Z,4.43
2022-10-15T19:46:11.881Z,3.78
2022-10-15T19:48:38.971Z,3.90
2022-10-15T19:51:06.582Z,3.80
2022-10-15T19:53:35.313Z,4.15
2022-10-15T19:56:05.425Z,4.00
2022-10-15T19:58:32.849Z,3.90
2022-10-15T20:01:00.724Z,3.70
2022-10-15T20:03:29.710Z,3.53
2022-10-15T20:08:24.727Z,3.10
2022-10-15T20:10:53.119Z,3.20
2022-10-15T20:13:22.149Z,3.15
2022-10-15T20:15:51.474Z,3.03
2022-10-15T20:18:19.351Z,2.60
2022-10-15T20:20:47.233Z,3.03
2022-10-15T20:23:16.199Z,2.60
2022-10-15T20:25:43.639Z,2.35
2022-10-15T20:28:12.999Z,2.40
2022-10-15T20:30:41.152Z,2.67
2022-10-15T20:33:08.786Z,2.28
2022-10-15T20:35:36.496Z,2.30
2022-10-15T20:38:04.872Z,2.83
2022-10-15T20:40:32.555Z,2.67
2022-10-15T20:42:59.323Z,3.47
2022-10-15T20:45:33.601Z,2.33
2022-10-15T20:48:00.734Z,2.78
2022-10-15T20:50:32.009Z,2.90
2022-10-15T20:52:58.814Z,3.40
2022-10-15T20:55:25.825Z,3.67
2022-10-15T20:57:53.978Z,3.08
2022-10-15T21:00:20.843Z,3.38
2022-10-15T21:02:48.935Z,2.90
2022-10-15T21:05:16.421Z,2.78
2022-10-15T21:07:43.139Z,2.92
2022-10-15T21:10:09.925Z,2.78
2022-10-15T21:12:37.361Z,2.60
2022-10-15T21:15:04.791Z,2.60
2022-10-15T21:17:31.533Z,2.60
2022-10-15T21:20:00.199Z,3.00
2022-10-15T21:22:26.905Z,3.17
2022-10-15T21:24:53.611Z,2.47
2022-10-15T21:27:20.921Z,3.15
2022-10-15T21:29:47.617Z,2.30
2022-10-15T21:32:14.321Z,2.20
2022-10-15T21:34:41.690Z,1.88
2022-10-15T21:37:09.748Z,2.10
2022-10-15T21:39:36.440Z,2.30
2022-10-15T21:42:04.019Z,2.08
2022-10-15T21:44:30.744Z,2.10
2022-10-15T21:46:57.527Z,2.20
2022-10-15T21:49:38.779Z,2.50
2022-10-15T21:52:05.471Z,2.25
2022-10-15T21:54:35.249Z,2.67
2022-10-15T21:57:01.946Z,2.50
2022-10-15T21:59:28.680Z,3.15
2022-10-15T22:01:56.092Z,2.42
2022-10-15T22:04:23.172Z,2.80
2022-10-15T22:06:49.888Z,2.78
2022-10-15T22:09:17.257Z,2.20
2022-10-15T22:11:45.358Z,2.95
2022-10-15T22:14:13.394Z,3.13
2022-10-15T22:16:41.728Z,3.60
2022-10-15T22:19:08.712Z,3.17
2022-10-15T22:21:38.002Z,3.20
2022-10-15T22:24:08.102Z,2.80
2022-10-15T22:26:36.895Z,2.78
2022-10-15T22:29:06.732Z,3.08
2022-10-15T22:31:34.072Z,3.35
2022-10-15T22:34:00.819Z,2.67
2022-10-15T22:36:29.566Z,2.50
2022-10-15T22:38:58.884Z,2.80
2022-10-15T22:41:27.131Z,2.92
2022-10-15T22:43:53.838Z,2.92
2022-10-15T22:46:22.488Z,2.97
2022-10-15T22:48:49.254Z,2.53
2022-10-15T22:51:16.183Z,2.83
2022-10-15T22:53:43.505Z,2.40
2022-10-15T22:56:13.078Z,3.20
2022-10-15T22:58:40.222Z,3.03
2022-10-15T23:01:09.704Z,3.17
2022-10-15T23:06:05.370Z,3.20
2022-10-15T23:08:33.491Z,3.20
2022-10-15T23:11:09.688Z,3.00
2022-10-15T23:13:37.901Z,2.83
2022-10-15T23:16:13.389Z,3.40
2022-10-15T23:18:43.778Z,3.70
2022-10-15T23:21:13.353Z,3.45
2022-10-15T23:23:41.066Z,2.97
2022-10-15T23:26:10.630Z,2.92
2022-10-15T23:28:37.537Z,3.80
2022-10-15T23:31:05.228Z,4.40
2022-10-15T23:33:31.970Z,3.20
2022-10-15T23:36:03.105Z,3.40
2022-10-15T23:38:31.006Z,3.47
2022-10-15T23:41:01.608Z,3.50
2022-10-15T23:43:28.369Z,3.50
2022-10-15T23:45:55.902Z,4.18
2022-10-15T23:48:22.727Z,3.40
2022-10-15T23:50:49.649Z,5.13
2022-10-15T23:53:18.410Z,3.72
2022-10-15T23:55:45.316Z,3.53
2022-10-15T23:58:12.334Z,4.50
